createdAt,value
2018-07-19T00:01:27.314Z,7.60
2018-07-19T00:03:55.732Z,6.77
2018-07-19T00:06:24.628Z,6.77
2018-07-19T00:08:53.420Z,6.90
2018-07-19T00:11:21.865Z,6.70
2018-07-19T00:13:50.850Z,6.70
2018-07-19T00:16:19.307Z,6.60
2018-07-19T00:18:47.728Z,6.30
2018-07-19T00:21:16.131Z,6.77
2018-07-19T00:23:45.050Z,5.60
2018-07-19T00:26:13.521Z,7.43
2018-07-19T00:28:41.996Z,8.13
2018-07-19T00:31:10.381Z,6.17
2018-07-19T00:33:39.242Z,7.23
2018-07-19T00:36:07.831Z,6.63
2018-07-19T00:38:36.285Z,6.30
2018-07-19T00:41:05.143Z,6.37
2018-07-19T00:43:33.570Z,6.63
2018-07-19T00:46:02.425Z,6.60
2018-07-19T00:48:30.850Z,6.20
2018-07-19T00:50:59.266Z,6.20
2018-07-19T00:53:27.679Z,6.10
2018-07-19T00:55:56.239Z,5.80
2018-07-19T00:58:25.113Z,5.70
2018-07-19T01:00:53.496Z,7.27
2018-07-19T01:03:22.030Z,5.73
2018-07-19T01:05:50.510Z,8.13
2018-07-19T01:08:19.376Z,5.57
2018-07-19T01:10:48.201Z,5.70
2018-07-19T01:13:16.607Z,6.50
2018-07-19T01:15:45.423Z,6.80
2018-07-19T01:18:13.914Z,7.40
2018-07-19T01:20:42.803Z,8.20
2018-07-19T01:23:11.232Z,7.37
2018-07-19T01:25:39.771Z,7.93
2018-07-19T01:28:08.635Z,7.40
2018-07-19T01:30:37.146Z,6.20
2018-07-19T01:33:05.574Z,5.70
2018-07-19T01:35:33.940Z,6.40
2018-07-19T01:38:02.870Z,5.67
2018-07-19T01:40:31.305Z,5.67
2018-07-19T01:43:00.169Z,5.53
2018-07-19T01:45:29.020Z,5.73
2018-07-19T01:47:57.441Z,6.10
2018-07-19T01:50:25.897Z,5.50
2018-07-19T01:52:54.286Z,5.70
2018-07-19T01:55:22.697Z,5.30
2018-07-19T01:57:51.128Z,5.63
2018-07-19T02:00:19.545Z,5.40
2018-07-19T02:02:48.339Z,5.53
2018-07-19T02:05:16.789Z,7.47
2018-07-19T02:07:45.209Z,5.87
2018-07-19T02:10:14.175Z,5.20
2018-07-19T02:12:42.592Z,6.33
2018-07-19T02:15:11.417Z,6.47
2018-07-19T02:17:39.959Z,5.50
2018-07-19T02:20:08.757Z,5.87
2018-07-19T02:22:37.309Z,5.20
2018-07-19T02:25:05.812Z,5.97
2018-07-19T02:27:34.285Z,5.73
2018-07-19T02:30:02.794Z,6.23
2018-07-19T02:32:31.710Z,5.73
2018-07-19T02:35:00.573Z,5.83
2018-07-19T02:37:29.421Z,5.80
2018-07-19T02:39:57.857Z,4.97
2018-07-19T02:42:26.292Z,5.50
2018-07-19T02:44:55.133Z,6.30
2018-07-19T02:47:23.542Z,5.47
2018-07-19T02:49:51.977Z,5.80
2018-07-19T02:52:20.891Z,5.83
2018-07-19T02:54:49.349Z,6.00
2018-07-19T02:57:17.774Z,4.90
2018-07-19T02:59:46.608Z,5.83
2018-07-19T03:02:15.132Z,7.77
2018-07-19T03:04:43.607Z,9.70
2018-07-19T03:07:12.399Z,6.07
2018-07-19T03:09:41.014Z,6.87
2018-07-19T03:12:09.564Z,6.73
2018-07-19T03:14:38.041Z,6.10
2018-07-19T03:17:06.887Z,5.93
2018-07-19T03:19:35.358Z,6.57
2018-07-19T03:22:04.169Z,6.30
2018-07-19T03:24:32.557Z,6.10
2018-07-19T03:27:00.961Z,6.47
2018-07-19T03:29:29.801Z,6.00
2018-07-19T03:31:58.264Z,6.50
2018-07-19T03:34:26.667Z,6.60
2018-07-19T03:36:55.545Z,6.60
2018-07-19T03:39:24.005Z,5.97
2018-07-19T03:41:52.848Z,7.30
2018-07-19T03:44:22.017Z,6.77
2018-07-19T03:46:50.442Z,6.33
2018-07-19T03:49:18.870Z,7.13
2018-07-19T03:51:47.759Z,7.57
2018-07-19T03:54:16.605Z,6.57
2018-07-19T03:56:45.142Z,6.57
2018-07-19T03:59:13.579Z,6.40
2018-07-19T04:01:42.046Z,6.07
2018-07-19T04:04:10.485Z,5.87
2018-07-19T04:06:38.908Z,7.80
2018-07-19T04:09:07.821Z,6.67
2018-07-19T04:11:36.645Z,6.00
2018-07-19T04:14:05.525Z,6.20
2018-07-19T04:16:33.985Z,6.40
2018-07-19T04:19:02.418Z,6.30
2018-07-19T04:21:31.417Z,7.30
2018-07-19T04:23:59.865Z,5.50
2018-07-19T04:26:28.653Z,6.23
2018-07-19T04:28:57.109Z,5.73
2018-07-19T04:31:25.545Z,5.73
2018-07-19T04:33:54.062Z,5.93
2018-07-19T04:36:22.434Z,7.73
2018-07-19T04:38:50.860Z,6.00
2018-07-19T04:41:19.641Z,6.10
2018-07-19T04:43:48.167Z,5.70
2018-07-19T04:46:17.021Z,5.73
2018-07-19T04:48:45.459Z,6.43
2018-07-19T04:51:13.864Z,6.30
2018-07-19T04:53:42.700Z,6.90
2018-07-19T04:56:11.136Z,5.50
2018-07-19T04:58:39.575Z,9.27
2018-07-19T05:01:08.013Z,5.83
2018-07-19T05:03:36.884Z,6.73
2018-07-19T05:06:05.775Z,6.23
2018-07-19T05:08:34.256Z,6.63
2018-07-19T05:11:02.729Z,6.40
2018-07-19T05:13:31.184Z,6.00
2018-07-19T05:15:59.663Z,6.93
2018-07-19T05:18:28.080Z,6.77
2018-07-19T05:20:56.957Z,5.67
2018-07-19T05:23:25.344Z,5.77
2018-07-19T05:25:54.189Z,5.40
2018-07-19T05:28:22.584Z,5.60
2018-07-19T05:30:50.992Z,7.80
2018-07-19T05:33:19.874Z,4.70
2018-07-19T05:35:48.898Z,6.63
2018-07-19T05:38:17.293Z,4.90
2018-07-19T05:40:45.725Z,4.93
2018-07-19T05:43:14.130Z,4.70
2018-07-19T05:45:42.945Z,6.70
2018-07-19T05:48:11.805Z,7.23
2018-07-19T05:50:40.622Z,5.00
2018-07-19T05:53:09.481Z,4.30
2018-07-19T05:55:38.346Z,5.17
2018-07-19T05:58:07.227Z,5.10
2018-07-19T06:00:35.680Z,5.80
2018-07-19T06:03:04.561Z,5.97
2018-07-19T06:05:33.539Z,6.17
2018-07-19T06:08:01.941Z,5.00
2018-07-19T06:10:30.867Z,4.77
2018-07-19T06:12:59.304Z,4.70
2018-07-19T06:15:28.185Z,4.50
2018-07-19T06:17:57.072Z,4.00
2018-07-19T06:20:25.493Z,4.23
2018-07-19T06:22:53.897Z,3.53
2018-07-19T06:25:22.786Z,4.03
2018-07-19T06:27:51.807Z,3.33
2018-07-19T06:30:20.797Z,3.07
2018-07-19T06:32:49.731Z,3.07
2018-07-19T06:35:18.547Z,3.00
2018-07-19T06:37:47.436Z,2.90
2018-07-19T06:40:16.256Z,5.83
2018-07-19T06:42:44.752Z,3.50
2018-07-19T06:45:13.636Z,3.27
2018-07-19T06:47:42.094Z,2.90
2018-07-19T06:50:10.966Z,3.27
2018-07-19T06:52:39.833Z,3.23
2018-07-19T06:55:08.736Z,4.70
2018-07-19T06:57:37.672Z,3.00
2018-07-19T07:00:06.786Z,3.17
2018-07-19T07:02:35.196Z,2.70
2018-07-19T07:05:04.488Z,2.63
2018-07-19T07:07:32.950Z,2.10
2018-07-19T07:10:01.475Z,3.20
2018-07-19T07:12:30.005Z,3.23
2018-07-19T07:14:58.560Z,4.37
2018-07-19T07:17:26.919Z,3.13
2018-07-19T07:19:55.775Z,3.43
2018-07-19T07:22:24.249Z,6.10
2018-07-19T07:24:52.654Z,3.70
2018-07-19T07:27:21.167Z,3.33
2018-07-19T07:29:49.613Z,2.13
2018-07-19T07:32:18.015Z,2.87
2018-07-19T07:34:46.388Z,2.87
2018-07-19T07:37:15.647Z,3.50
2018-07-19T07:39:44.123Z,3.93
2018-07-19T07:42:12.994Z,2.70
2018-07-19T07:44:41.511Z,3.30
2018-07-19T07:47:09.937Z,1.90
2018-07-19T07:49:38.784Z,4.20
2018-07-19T07:52:08.238Z,4.10
2018-07-19T07:54:37.130Z,3.73
2018-07-19T07:57:05.524Z,2.70
2018-07-19T07:59:34.005Z,2.93
2018-07-19T08:02:02.788Z,2.83
2018-07-19T08:04:31.672Z,2.07
2018-07-19T08:07:00.116Z,1.90
2018-07-19T08:09:28.909Z,4.03
2018-07-19T08:11:57.371Z,2.10
2018-07-19T08:14:25.932Z,2.30
2018-07-19T08:16:54.814Z,1.80
2018-07-19T08:19:23.302Z,3.70
2018-07-19T08:21:51.770Z,3.93
2018-07-19T08:24:20.259Z,2.77
2018-07-19T08:26:49.078Z,1.80
2018-07-19T08:29:17.540Z,1.80
2018-07-19T08:31:45.978Z,1.77
2018-07-19T08:34:14.417Z,2.30
2018-07-19T08:36:43.274Z,3.33
2018-07-19T08:39:13.853Z,2.80
2018-07-19T08:41:43.049Z,2.77
2018-07-19T08:44:11.528Z,2.77
2018-07-19T08:46:39.968Z,3.20
2018-07-19T08:49:08.860Z,2.50
2018-07-19T08:51:37.387Z,2.20
2018-07-19T08:54:05.845Z,4.27
2018-07-19T08:56:34.397Z,2.90
2018-07-19T08:59:03.279Z,4.37
2018-07-19T09:01:32.005Z,3.03
2018-07-19T09:04:00.407Z,2.53
2018-07-19T09:06:29.253Z,2.77
2018-07-19T09:08:57.656Z,2.70
2018-07-19T09:11:26.149Z,5.27
2018-07-19T09:13:54.548Z,2.77
2018-07-19T09:16:23.020Z,2.20
2018-07-19T09:18:51.845Z,2.13
2018-07-19T09:21:20.721Z,2.03
2018-07-19T09:23:49.637Z,2.80
2018-07-19T09:26:18.065Z,2.60
2018-07-19T09:28:46.496Z,2.73
2018-07-19T09:31:15.304Z,3.00
2018-07-19T09:33:44.176Z,3.60
2018-07-19T09:36:13.099Z,3.60
2018-07-19T09:38:41.992Z,3.67
2018-07-19T09:41:10.374Z,3.40
2018-07-19T09:43:39.304Z,2.97
2018-07-19T09:46:07.678Z,3.57
2018-07-19T09:48:36.112Z,2.80
2018-07-19T09:51:04.969Z,3.40
2018-07-19T09:53:33.462Z,3.43
2018-07-19T09:56:02.224Z,3.07
2018-07-19T09:58:31.046Z,3.07
2018-07-19T10:01:06.109Z,4.40
2018-07-19T10:03:35.650Z,3.03
2018-07-19T10:06:04.511Z,4.43
2018-07-19T10:08:33.024Z,2.93
2018-07-19T10:11:01.523Z,4.07
2018-07-19T10:13:30.033Z,4.40
2018-07-19T10:15:58.875Z,3.10
2018-07-19T10:18:27.291Z,3.90
2018-07-19T10:20:55.743Z,3.70
2018-07-19T10:23:24.287Z,3.67
2018-07-19T10:25:52.721Z,3.40
2018-07-19T10:28:21.605Z,4.07
2018-07-19T10:30:50.127Z,4.30
2018-07-19T10:33:19.173Z,5.40
2018-07-19T10:35:48.017Z,3.43
2018-07-19T10:38:16.464Z,4.40
2018-07-19T10:40:45.014Z,5.13
2018-07-19T10:43:13.381Z,5.87
2018-07-19T10:45:41.831Z,4.73
2018-07-19T10:48:10.270Z,4.40
2018-07-19T10:50:39.115Z,5.80
2018-07-19T10:53:07.943Z,4.23
2018-07-19T10:55:36.338Z,4.30
2018-07-19T10:58:04.810Z,3.93
2018-07-19T11:00:33.662Z,4.47
2018-07-19T11:03:02.131Z,4.83
2018-07-19T11:05:30.581Z,4.30
2018-07-19T11:07:59.385Z,4.53
2018-07-19T11:10:27.824Z,4.93
2018-07-19T11:12:56.248Z,4.43
2018-07-19T11:15:25.032Z,4.03
2018-07-19T11:17:53.519Z,4.20
2018-07-19T11:20:21.906Z,5.10
2018-07-19T11:22:50.368Z,4.60
2018-07-19T11:25:18.803Z,4.27
2018-07-19T11:27:47.605Z,4.00
2018-07-19T11:30:16.056Z,4.03
2018-07-19T11:32:44.509Z,4.50
2018-07-19T11:35:12.971Z,4.43
2018-07-19T11:37:41.749Z,4.67
2018-07-19T11:40:10.597Z,4.37
2018-07-19T11:42:39.521Z,4.40
2018-07-19T11:45:07.925Z,4.60
2018-07-19T11:47:36.420Z,5.17
2018-07-19T11:50:05.930Z,4.27
2018-07-19T11:52:34.379Z,4.47
2018-07-19T11:55:02.854Z,4.80
2018-07-19T11:57:31.715Z,5.93
2018-07-19T12:00:00.135Z,4.67
2018-07-19T12:02:28.533Z,4.57
2018-07-19T12:04:57.404Z,4.53
2018-07-19T12:07:25.798Z,4.97
2018-07-19T12:09:54.289Z,4.90
2018-07-19T12:12:22.725Z,4.93
2018-07-19T12:14:51.589Z,4.30
2018-07-19T12:17:20.046Z,4.40
2018-07-19T12:19:48.440Z,4.80
2018-07-19T12:22:16.854Z,4.10
2018-07-19T12:24:45.285Z,4.70
2018-07-19T12:27:13.690Z,3.47
2018-07-19T12:29:42.471Z,3.50
2018-07-19T12:32:11.320Z,4.00
2018-07-19T12:34:40.149Z,3.90
2018-07-19T12:37:09.006Z,3.73
2018-07-19T12:39:37.814Z,3.57
2018-07-19T12:42:06.701Z,3.60
2018-07-19T12:44:35.560Z,3.60
2018-07-19T12:47:03.968Z,3.27
2018-07-19T12:49:32.383Z,3.97
2018-07-19T12:52:01.203Z,3.13
2018-07-19T12:54:30.136Z,2.80
2018-07-19T12:56:58.590Z,3.40
2018-07-19T12:59:27.406Z,5.93
2018-07-19T13:01:55.794Z,3.67
2018-07-19T13:04:24.258Z,3.23
2018-07-19T13:06:52.630Z,4.23
2018-07-19T13:09:21.037Z,4.00
2018-07-19T13:11:49.909Z,5.53
2018-07-19T13:14:18.364Z,6.23
2018-07-19T13:16:46.799Z,3.93
2018-07-19T13:19:15.265Z,3.27
2018-07-19T13:21:43.659Z,3.33
2018-07-19T13:24:12.177Z,3.80
2018-07-19T13:26:40.937Z,3.37
2018-07-19T13:29:09.826Z,3.23
2018-07-19T13:31:38.623Z,3.20
2018-07-19T13:34:07.495Z,3.80
